Portada
METAR-TAF:

METAR-TAF

Aeroports :

Davao, Filipines

latitud: 07-07N, longitud: 125-39E, altitud: 17 m

Observació

L'informe es va fer fa 50 minuts, a les 17:00 UTC
Vent 4 kt del Sud
Temperatura 27°C
Humitat 89%
Pressió 1012 hPa
Visibilitat 10 km o més
Escasses núvols a una alçada de 1600 ft
Cel ennuvolat a una alçada de 29000 ft

METAR: RPMD 211700Z 18004KT 9999 FEW016 BKN290 27/25 Q1012 RMK A2988

Hora: 01:50 (17:50 UTC)

Pronòstic

L'informe es va fer fa 50 minuts, a les 17:00 UTC
Pronòstic vàlid del 21 a les 18 UTC al 22 a les 18 UTC
Vent 6 kt del Sud
Visibilitat 10 km o més
Escasses núvols a una alçada de 1600 ft
Núvols disperses a una alçada de 29000 ft
Temporalment
l' 21 a les 18 UTC al 21 a les 24 UTC
Vent kt del Nord
Escasses núvols a una alçada de 1600 ft
Cel ennuvolat a una alçada de 29000 ft

TAF: RPMD 211700Z 2118/2218 18006KT 9999 FEW016 SCT290 TEMPO 2118/2124 00000KT FEW016 BKN290

Observacions i pronòstics meteorològics de més de 4000 aeroports (METAR i TAF).

Les estacions disponibles són els punts grocs i vermells al mapa.

Posi el ratolí al punt desitjat per veure el nom de l'estació.

Feu clic per veure les observacions i els pronòstics meteorològics.

Per canviar el mapa: feu clic els botons verds amb una creu de color negre per apropar; al botó verd amb un guió per allunyar la imatge; o en les fletxes verdes per a mapes adjacents.


METAR-TAF: